createdAt,value
2022-12-31T00:07:26.086Z,0.65
2022-12-31T00:17:27.602Z,0.70
2022-12-31T00:27:32.195Z,0.60
2022-12-31T00:37:33.718Z,0.70
2022-12-31T00:47:35.212Z,0.50
2022-12-31T00:57:36.671Z,0.73
2022-12-31T01:07:38.343Z,0.80
2022-12-31T01:17:39.799Z,0.80
2022-12-31T01:27:41.272Z,0.60
2022-12-31T01:37:42.861Z,0.88
2022-12-31T01:47:47.564Z,0.80
2022-12-31T01:57:52.794Z,0.80
2022-12-31T02:07:54.801Z,0.50
2022-12-31T02:18:03.343Z,0.60
2022-12-31T02:28:23.653Z,0.70
2022-12-31T02:38:31.192Z,0.47
2022-12-31T02:48:41.795Z,0.50
2022-12-31T02:59:22.276Z,0.30
2022-12-31T03:09:23.849Z,0.40
2022-12-31T03:19:44.123Z,0.50
2022-12-31T03:29:45.629Z,0.40
2022-12-31T03:39:47.120Z,0.30
2022-12-31T03:49:48.684Z,0.38
2022-12-31T03:59:50.185Z,0.40
2022-12-31T04:09:51.710Z,0.32
2022-12-31T04:19:53.167Z,0.40
2022-12-31T04:29:54.657Z,0.30
2022-12-31T04:40:00.312Z,0.40
2022-12-31T04:50:05.772Z,0.30
2022-12-31T05:00:08.069Z,0.30
2022-12-31T05:10:09.534Z,0.22
2022-12-31T05:20:11.090Z,0.30
2022-12-31T05:30:13.246Z,0.30
2022-12-31T05:40:14.893Z,0.30
2022-12-31T05:50:16.661Z,0.28
2022-12-31T06:00:18.358Z,0.30
2022-12-31T06:10:19.847Z,0.30
2022-12-31T06:20:21.397Z,0.30
2022-12-31T06:30:22.913Z,0.22
2022-12-31T06:40:24.477Z,0.10
2022-12-31T06:50:25.976Z,0.28
2022-12-31T07:00:28.770Z,0.20
2022-12-31T07:10:45.851Z,0.20
2022-12-31T07:20:47.609Z,0.32
2022-12-31T07:30:54.603Z,0.20
2022-12-31T07:41:21.891Z,0.10
2022-12-31T07:51:23.662Z,0.30
2022-12-31T08:01:50.636Z,0.30
2022-12-31T08:11:58.008Z,0.30
2022-12-31T08:22:27.904Z,0.20
2022-12-31T08:32:35.310Z,0.20
2022-12-31T08:42:48.381Z,0.20
2022-12-31T08:52:50.186Z,0.20
2022-12-31T09:03:16.236Z,0.30
2022-12-31T09:13:55.415Z,0.20
2022-12-31T09:23:57.219Z,0.30
2022-12-31T09:34:12.403Z,0.10
2022-12-31T09:44:32.560Z,0.20
2022-12-31T09:54:50.377Z,0.30
2022-12-31T10:05:16.445Z,0.20
2022-12-31T10:15:45.977Z,0.20
2022-12-31T10:25:56.327Z,0.20
2022-12-31T10:36:10.074Z,0.20
2022-12-31T10:46:31.026Z,0.15
2022-12-31T10:57:10.013Z,0.20
2022-12-31T11:07:23.548Z,0.22
2022-12-31T11:17:34.542Z,0.20
2022-12-31T11:27:49.491Z,0.25
2022-12-31T11:37:53.264Z,0.33
2022-12-31T11:48:31.965Z,0.30
2022-12-31T11:58:33.973Z,0.30
2022-12-31T12:08:35.860Z,0.40
2022-12-31T12:18:51.405Z,0.40
2022-12-31T12:28:52.860Z,0.30
2022-12-31T12:39:06.683Z,0.50
2022-12-31T12:49:21.633Z,0.40
2022-12-31T12:59:29.120Z,0.30
2022-12-31T13:10:03.379Z,0.40
2022-12-31T13:20:17.607Z,0.40
2022-12-31T13:30:26.429Z,0.57
2022-12-31T13:40:42.557Z,0.30
2022-12-31T13:50:51.798Z,0.30
2022-12-31T14:01:16.360Z,0.30
2022-12-31T14:11:25.121Z,0.40
2022-12-31T14:21:37.652Z,0.40
2022-12-31T14:32:07.993Z,0.30
2022-12-31T14:42:18.703Z,0.55
2022-12-31T14:52:22.391Z,0.30
2022-12-31T15:02:34.608Z,0.35
2022-12-31T15:12:50.736Z,0.50
2022-12-31T15:22:52.879Z,0.57
2022-12-31T15:32:56.564Z,0.63
2022-12-31T15:43:04.683Z,0.60
2022-12-31T15:53:07.591Z,0.63
2022-12-31T16:03:22.114Z,0.88
2022-12-31T16:13:25.542Z,1.17
2022-12-31T16:23:27.730Z,1.10
2022-12-31T16:33:30.433Z,1.25
2022-12-31T16:43:38.702Z,1.52
2022-12-31T16:53:40.857Z,1.45
2022-12-31T17:03:45.315Z,1.48
2022-12-31T17:14:08.662Z,1.70
2022-12-31T17:24:12.020Z,2.08
2022-12-31T17:34:13.460Z,1.77
2022-12-31T17:44:18.761Z,2.58
2022-12-31T18:04:21.699Z,2.13
2022-12-31T18:14:23.204Z,1.92
2022-12-31T18:24:26.255Z,2.17
2022-12-31T18:34:27.776Z,2.53
2022-12-31T18:44:29.308Z,2.22
2022-12-31T18:54:30.831Z,2.33
2022-12-31T19:04:32.354Z,2.65
2022-12-31T19:14:33.839Z,2.60
2022-12-31T19:24:35.296Z,2.40
2022-12-31T19:34:36.745Z,2.63
2022-12-31T19:44:38.210Z,2.53
2022-12-31T19:54:39.685Z,2.65
2022-12-31T20:04:41.167Z,2.95
2022-12-31T20:14:43.037Z,3.15
2022-12-31T20:24:44.553Z,3.15
2022-12-31T20:34:46.043Z,2.78
2022-12-31T20:44:47.576Z,3.70
2022-12-31T20:54:49.120Z,3.28
2022-12-31T21:04:50.755Z,3.33
2022-12-31T21:14:52.351Z,3.35
2022-12-31T21:24:53.809Z,3.15
2022-12-31T21:35:23.106Z,3.22
2022-12-31T21:45:16.753Z,3.30
2022-12-31T21:55:41.385Z,2.80
2022-12-31T22:06:00.976Z,3.10
2022-12-31T22:16:05.663Z,3.45
2022-12-31T22:26:09.227Z,3.30
2022-12-31T22:36:13.674Z,3.50
2022-12-31T22:46:21.051Z,3.03
2022-12-31T22:56:22.567Z,2.97
2022-12-31T23:06:24.723Z,3.00
2022-12-31T23:16:47.074Z,3.70
2022-12-31T23:26:48.761Z,3.35
2022-12-31T23:36:50.376Z,4.10
2022-12-31T23:46:51.892Z,4.65
2022-12-31T23:56:53.403Z,5.03
